Time;durP1;ratioP1;P1;durP2;ratioP2;P2;SDS_P1;SDS_P2;PMS_P1;PMS_P2;Temp;Humidity;BMP_temperature;BMP_pressure;BME280_temperature;BME280_humidity;BME280_pressure;Samples;Min_cycle;Max_cycle;Signal;HPM_P1;HPM_P2
2022/01/15 00:02:22;;;;;;;42.38;8.77;;;6.00;99.90;;;;;;4990495;28;20085;-48
2022/01/15 00:04:49;;;;;;;46.63;7.95;;;6.00;99.90;;;;;;5002587;28;20064;-47
2022/01/15 00:07:15;;;;;;;71.80;9.50;;;6.00;99.90;;;;;;5003135;28;20056;-47
2022/01/15 00:09:44;;;;;;;43.90;7.65;;;6.10;99.90;;;;;;5002238;28;20590;-48
2022/01/15 00:12:10;;;;;;;33.75;7.40;;;6.10;99.90;;;;;;5003426;28;20081;-48
2022/01/15 00:14:41;;;;;;;29.48;7.20;;;6.00;99.90;;;;;;5003063;28;20411;-49
2022/01/15 00:17:15;;;;;;;42.72;7.97;;;6.00;99.90;;;;;;5002531;28;20124;-47
2022/01/15 00:19:41;;;;;;;29.48;7.65;;;6.00;99.90;;;;;;5001023;28;20065;-47
2022/01/15 00:22:25;;;;;;;55.90;8.75;;;6.00;99.90;;;;;;5002745;28;20054;-50
2022/01/15 00:24:50;;;;;;;32.65;6.55;;;5.90;99.90;;;;;;4996545;28;20591;-47
2022/01/15 00:27:18;;;;;;;28.17;7.00;;;6.00;99.90;;;;;;4996119;28;20053;-50
2022/01/15 00:29:43;;;;;;;22.30;7.13;;;6.00;99.90;;;;;;4989473;28;20053;-47
2022/01/15 00:32:09;;;;;;;17.67;7.25;;;6.00;99.90;;;;;;5001858;28;20531;-47
2022/01/15 00:34:35;;;;;;;23.67;8.23;;;5.90;99.90;;;;;;5004533;28;20038;-47
2022/01/15 00:37:01;;;;;;;34.15;8.55;;;5.90;99.90;;;;;;5001817;28;20370;-47
2022/01/15 00:39:27;;;;;;;40.03;9.85;;;6.00;99.90;;;;;;5000700;28;20049;-47
2022/01/15 00:41:53;;;;;;;42.10;9.82;;;5.90;99.90;;;;;;4997552;28;20050;-47
2022/01/15 00:44:19;;;;;;;45.25;10.27;;;5.90;99.90;;;;;;5000514;28;20079;-48
2022/01/15 00:46:48;;;;;;;33.65;9.70;;;5.90;99.90;;;;;;5000259;28;20054;-47
2022/01/15 00:49:14;;;;;;;41.33;10.02;;;5.90;99.90;;;;;;4999904;28;20201;-47
2022/01/15 00:51:40;;;;;;;44.30;10.20;;;6.00;99.90;;;;;;5002601;28;20053;-48
2022/01/15 00:54:06;;;;;;;50.70;10.70;;;6.00;99.90;;;;;;5001451;28;20771;-47
2022/01/15 00:56:32;;;;;;;45.08;11.57;;;5.90;99.90;;;;;;5003846;28;20815;-51
2022/01/15 00:58:57;;;;;;;56.30;13.57;;;6.00;99.90;;;;;;5005419;28;20103;-47
2022/01/15 01:01:23;;;;;;;32.65;11.57;;;5.90;99.90;;;;;;5003515;28;20058;-48
2022/01/15 01:03:50;;;;;;;38.75;13.30;;;6.00;99.90;;;;;;5001678;28;20045;-53
2022/01/15 01:06:16;;;;;;;40.40;13.27;;;5.90;99.90;;;;;;4967365;28;20096;-49
2022/01/15 01:08:43;;;;;;;68.90;15.25;;;5.90;99.90;;;;;;5003612;28;20088;-47
2022/01/15 01:11:14;;;;;;;86.25;15.82;;;5.90;99.90;;;;;;5002413;28;20046;-47
2022/01/15 01:20:03;;;;;;;56.35;13.45;;;5.90;99.90;;;;;;4989937;28;20053;-47
2022/01/15 01:24:28;;;;;;;68.80;14.32;;;5.90;99.90;;;;;;5001179;28;20112;-49
2022/01/15 01:27:02;;;;;;;45.42;12.75;;;5.90;99.90;;;;;;5002139;28;20571;-47
2022/01/15 01:32:36;;;;;;;30.98;12.07;;;6.00;99.90;;;;;;5000257;28;20046;-47
2022/01/15 01:35:05;;;;;;;24.05;10.93;;;5.90;99.90;;;;;;4994736;28;20604;-47
2022/01/15 01:37:36;;;;;;;;;;;5.90;99.90;;;;;;5003607;28;20464;-49
2022/01/15 01:40:18;;;;;;;27.08;10.73;;;6.00;99.90;;;;;;5002890;28;20287;-47
2022/01/15 01:42:54;;;;;;;25.75;10.45;;;5.90;99.90;;;;;;5000297;28;20058;-47
2022/01/15 01:45:20;;;;;;;30.27;11.98;;;6.00;99.90;;;;;;5000823;28;20041;-47
2022/01/15 01:47:46;;;;;;;25.92;12.35;;;5.90;99.90;;;;;;5002228;28;20499;-49
2022/01/15 01:50:19;;;;;;;31.95;12.75;;;6.00;99.90;;;;;;5000830;28;20084;-46
2022/01/15 01:52:48;;;;;;;20.05;9.45;;;6.00;99.90;;;;;;5000972;28;20092;-47
2022/01/15 01:55:17;;;;;;;15.20;7.75;;;6.00;99.90;;;;;;5001322;28;20076;-48
2022/01/15 01:57:43;;;;;;;19.40;7.78;;;6.00;99.90;;;;;;5002287;28;20504;-49
2022/01/15 02:00:13;;;;;;;14.15;7.78;;;6.00;99.90;;;;;;5000209;28;20145;-47
2022/01/15 02:02:39;;;;;;;16.65;8.25;;;5.90;99.90;;;;;;4992242;28;20050;-47
2022/01/15 02:05:05;;;;;;;14.73;8.10;;;5.90;99.90;;;;;;4981259;28;20051;-47
2022/01/15 02:07:31;;;;;;;18.58;7.72;;;5.90;99.90;;;;;;4983457;28;20042;-47
2022/01/15 02:09:58;;;;;;;11.50;6.85;;;5.90;99.90;;;;;;4999537;28;20062;-48
2022/01/15 02:12:24;;;;;;;16.02;8.07;;;5.90;99.90;;;;;;5004182;28;20062;-50
2022/01/15 02:14:50;;;;;;;12.88;7.63;;;5.90;99.90;;;;;;5000931;28;20053;-50
2022/01/15 02:17:19;;;;;;;13.60;7.32;;;6.00;99.90;;;;;;5000290;28;20060;-51
2022/01/15 02:25:12;;;;;;;22.08;10.00;;;6.00;99.90;;;;;;4999517;28;20052;-47
2022/01/15 02:27:38;;;;;;;23.90;9.60;;;6.00;99.90;;;;;;5001485;28;20057;-47
2022/01/15 02:30:05;;;;;;;17.35;8.85;;;5.90;99.90;;;;;;5001192;28;20492;-48
2022/01/15 02:32:32;;;;;;;14.32;7.88;;;5.90;99.90;;;;;;5001712;28;20061;-47
2022/01/15 02:34:59;;;;;;;14.95;7.90;;;5.90;99.90;;;;;;4999737;28;20140;-47
2022/01/15 02:37:25;;;;;;;12.30;7.15;;;6.00;99.90;;;;;;4999244;28;20492;-50
2022/01/15 02:39:50;;;;;;;12.40;6.47;;;6.00;99.90;;;;;;5001834;28;20066;-47
2022/01/15 02:42:16;;;;;;;10.95;6.20;;;5.90;99.90;;;;;;4998632;28;20070;-48
2022/01/15 02:44:43;;;;;;;12.00;6.13;;;5.90;99.90;;;;;;5004174;28;20049;-47
2022/01/15 02:49:35;;;;;;;14.13;7.32;;;5.90;99.90;;;;;;5003391;28;20057;-48
2022/01/15 02:52:01;;;;;;;13.50;6.65;;;5.90;99.90;;;;;;5003463;28;20420;-48
2022/01/15 02:54:26;;;;;;;10.52;5.95;;;5.90;99.90;;;;;;4995653;28;20108;-47
2022/01/15 02:56:52;;;;;;;10.63;5.85;;;5.90;99.90;;;;;;5001298;28;20050;-47
2022/01/15 02:59:24;;;;;;;10.00;5.45;;;5.90;99.90;;;;;;5003942;28;20056;-48
2022/01/15 03:01:50;;;;;;;10.57;5.05;;;5.90;99.90;;;;;;4995372;28;20153;-47
2022/01/15 03:04:18;;;;;;;9.98;5.38;;;5.90;99.90;;;;;;5003851;28;20038;-49
2022/01/15 03:06:43;;;;;;;8.63;4.97;;;5.90;99.90;;;;;;4997049;28;20256;-47
2022/01/15 03:09:09;;;;;;;9.27;4.97;;;5.80;99.90;;;;;;5004233;28;20156;-47
2022/01/15 03:11:35;;;;;;;10.63;4.90;;;5.80;99.90;;;;;;5004173;28;20196;-47
2022/01/15 03:14:01;;;;;;;7.65;3.95;;;5.80;99.90;;;;;;4995932;28;20515;-48
2022/01/15 03:16:27;;;;;;;9.00;4.38;;;5.80;99.90;;;;;;4996430;28;20038;-48
2022/01/15 03:18:53;;;;;;;8.25;4.13;;;5.70;99.90;;;;;;5005305;28;20096;-49
2022/01/15 03:21:19;;;;;;;9.45;4.30;;;5.70;99.90;;;;;;5005108;28;20045;-47
2022/01/15 03:23:45;;;;;;;8.32;3.70;;;5.80;99.90;;;;;;5007939;28;20140;-49
2022/01/15 03:26:14;;;;;;;5.72;3.53;;;5.70;99.90;;;;;;5004792;28;20053;-49
2022/01/15 03:28:40;;;;;;;8.57;4.00;;;5.80;99.90;;;;;;5004432;28;20096;-48
2022/01/15 03:31:07;;;;;;;7.00;4.32;;;5.80;99.90;;;;;;5002912;28;20053;-48
2022/01/15 03:33:33;;;;;;;6.82;3.60;;;5.70;99.90;;;;;;5002047;28;20066;-47
2022/01/15 03:35:59;;;;;;;7.50;3.33;;;5.70;99.90;;;;;;5005376;28;20538;-48
2022/01/15 03:38:25;;;;;;;6.75;3.42;;;5.70;99.90;;;;;;5003652;28;20049;-47
2022/01/15 03:40:53;;;;;;;5.05;3.03;;;5.70;99.90;;;;;;5002823;28;20050;-47
2022/01/15 03:43:18;;;;;;;6.68;3.58;;;5.70;99.90;;;;;;4984677;28;20046;-51
2022/01/15 03:45:44;;;;;;;4.65;3.22;;;5.70;99.90;;;;;;5003082;28;20048;-47
2022/01/15 03:48:10;;;;;;;6.25;3.53;;;5.70;99.90;;;;;;5002959;28;20413;-51
2022/01/15 03:50:37;;;;;;;4.65;3.20;;;5.70;99.90;;;;;;5003193;28;20041;-48
2022/01/15 03:53:03;;;;;;;6.07;3.47;;;5.70;99.90;;;;;;5003169;28;20060;-48
2022/01/15 03:55:29;;;;;;;5.97;3.03;;;5.70;99.90;;;;;;5004030;28;20534;-48
2022/01/15 03:57:55;;;;;;;5.03;2.83;;;5.70;99.90;;;;;;5003966;28;20050;-48
2022/01/15 04:00:24;;;;;;;6.18;3.38;;;5.60;99.90;;;;;;5002720;28;20054;-47
2022/01/15 04:02:51;;;;;;;6.03;3.00;;;5.60;99.90;;;;;;5003545;28;20125;-47
2022/01/15 04:05:17;;;;;;;6.63;3.38;;;5.60;99.90;;;;;;5003259;28;20141;-47
2022/01/15 04:07:43;;;;;;;6.10;3.00;;;5.60;99.90;;;;;;5001439;28;20050;-49
2022/01/15 04:10:11;;;;;;;7.63;3.55;;;5.50;99.90;;;;;;4990703;28;20042;-47
2022/01/15 04:12:37;;;;;;;6.93;3.22;;;5.50;99.90;;;;;;4992477;28;20604;-47
2022/01/15 04:15:04;;;;;;;6.18;3.53;;;5.50;99.90;;;;;;5001759;28;20559;-51
2022/01/15 04:17:30;;;;;;;8.07;3.35;;;5.50;99.90;;;;;;5003687;28;20041;-48
2022/01/15 04:19:58;;;;;;;6.85;2.97;;;5.60;99.90;;;;;;5002605;28;20412;-47
2022/01/15 04:22:23;;;;;;;4.22;2.80;;;5.50;99.90;;;;;;5002365;28;20369;-47
2022/01/15 04:24:49;;;;;;;4.10;2.50;;;5.60;99.90;;;;;;5002230;28;20072;-47
2022/01/15 04:27:15;;;;;;;4.68;2.80;;;5.50;99.90;;;;;;5002721;28;20065;-49
2022/01/15 04:29:41;;;;;;;7.75;2.95;;;5.50;99.90;;;;;;5002574;28;20096;-47
2022/01/15 04:32:07;;;;;;;3.88;2.30;;;5.50;99.90;;;;;;5003811;28;20124;-48
2022/01/15 04:34:33;;;;;;;4.68;2.28;;;5.40;99.90;;;;;;5008148;28;20496;-48
2022/01/15 04:37:20;;;;;;;6.80;2.85;;;5.50;99.90;;;;;;5005230;28;20117;-49
2022/01/15 04:39:46;;;;;;;5.88;2.47;;;5.50;99.90;;;;;;5001838;28;20395;-48
2022/01/15 04:42:12;;;;;;;7.50;2.00;;;5.50;99.90;;;;;;5000815;28;20060;-47
2022/01/15 04:44:38;;;;;;;5.45;2.20;;;5.40;99.90;;;;;;5001735;28;20646;-49
2022/01/15 04:47:04;;;;;;;5.20;2.45;;;5.50;99.90;;;;;;5002904;28;20050;-49
2022/01/15 04:49:31;;;;;;;6.82;2.70;;;5.50;99.90;;;;;;5001996;28;20180;-47
2022/01/15 04:51:57;;;;;;;4.22;2.25;;;5.40;99.90;;;;;;5002048;28;20514;-50
2022/01/15 04:54:23;;;;;;;7.32;2.80;;;5.40;99.90;;;;;;4998111;28;20345;-48
2022/01/15 04:56:49;;;;;;;5.28;2.95;;;5.50;99.90;;;;;;5001880;28;20068;-47
2022/01/15 04:59:17;;;;;;;6.55;2.90;;;5.50;99.90;;;;;;5001504;28;20057;-47
2022/01/15 05:01:43;;;;;;;6.60;2.72;;;5.40;99.90;;;;;;5002033;28;20058;-47
2022/01/15 05:04:09;;;;;;;3.45;2.10;;;5.50;99.90;;;;;;5000843;28;20124;-50
2022/01/15 05:06:35;;;;;;;5.38;3.20;;;5.50;99.90;;;;;;5002054;28;20050;-47
2022/01/15 05:09:06;;;;;;;6.07;2.78;;;5.50;99.90;;;;;;5002925;28;20049;-49
2022/01/15 05:11:45;;;;;;;4.70;2.70;;;5.50;99.90;;;;;;5001912;28;20058;-48
2022/01/15 05:14:18;;;;;;;7.55;3.05;;;5.50;99.90;;;;;;5000730;28;20046;-47
2022/01/15 05:16:44;;;;;;;5.82;2.80;;;5.50;99.90;;;;;;5001679;28;20618;-48
2022/01/15 05:19:10;;;;;;;5.93;2.78;;;5.40;99.90;;;;;;5002235;28;20042;-47
2022/01/15 05:21:37;;;;;;;5.95;3.05;;;5.50;99.90;;;;;;5002519;28;20046;-47
2022/01/15 05:24:03;;;;;;;5.35;2.25;;;5.50;99.90;;;;;;5001690;28;20503;-49
2022/01/15 05:26:28;;;;;;;4.38;2.53;;;5.40;99.90;;;;;;5001653;28;20671;-48
2022/01/15 05:28:55;;;;;;;8.10;3.22;;;5.40;99.90;;;;;;5002094;28;20056;-48
2022/01/15 05:31:20;;;;;;;5.30;3.10;;;5.40;99.90;;;;;;5002129;28;20050;-48
2022/01/15 05:33:46;;;;;;;5.43;2.88;;;5.30;99.90;;;;;;5002075;28;20046;-47
2022/01/15 05:36:12;;;;;;;6.32;3.53;;;5.40;99.90;;;;;;5002156;28;20543;-48
2022/01/15 05:38:37;;;;;;;4.72;2.75;;;5.40;99.90;;;;;;5001509;28;20061;-47
2022/01/15 05:41:04;;;;;;;4.65;3.50;;;5.40;99.90;;;;;;5002256;28;20140;-48
2022/01/15 05:43:30;;;;;;;6.15;3.80;;;5.30;99.90;;;;;;5002299;28;20100;-49
2022/01/15 05:45:56;;;;;;;6.45;3.85;;;5.30;99.90;;;;;;5004395;28;20038;-49
2022/01/15 05:48:21;;;;;;;4.93;3.28;;;5.30;99.90;;;;;;5003259;28;20080;-49
2022/01/15 05:50:47;;;;;;;5.15;3.40;;;5.30;99.90;;;;;;5002447;28;20060;-48
2022/01/15 05:53:13;;;;;;;9.00;4.97;;;5.30;99.90;;;;;;5000989;28;20042;-49
2022/01/15 05:55:39;;;;;;;5.15;3.53;;;5.30;99.90;;;;;;5002639;28;20046;-50
2022/01/15 05:58:07;;;;;;;7.07;4.15;;;5.30;99.90;;;;;;5001955;28;20042;-48
2022/01/15 06:00:34;;;;;;;5.88;3.78;;;5.30;99.90;;;;;;5001553;28;20065;-48
2022/01/15 06:03:00;;;;;;;6.28;4.00;;;5.30;99.90;;;;;;4989919;28;20100;-49
2022/01/15 06:05:28;;;;;;;4.35;2.97;;;5.30;99.90;;;;;;5000511;28;20093;-47
2022/01/15 06:07:55;;;;;;;4.32;2.83;;;5.20;99.90;;;;;;5000860;28;20042;-49
2022/01/15 06:10:21;;;;;;;6.05;3.05;;;5.20;99.90;;;;;;4999564;28;20074;-49
2022/01/15 06:12:47;;;;;;;4.80;2.60;;;5.10;99.90;;;;;;5001811;28;20551;-47
2022/01/15 06:15:14;;;;;;;5.28;2.63;;;5.20;99.90;;;;;;4989160;28;20057;-47
2022/01/15 06:17:40;;;;;;;7.57;3.05;;;5.20;99.90;;;;;;5005862;28;20572;-48
2022/01/15 06:20:07;;;;;;;5.25;2.85;;;5.20;99.90;;;;;;5006013;28;20045;-48
2022/01/15 06:22:32;;;;;;;5.75;3.28;;;5.10;99.90;;;;;;5006451;28;20073;-49
2022/01/15 06:24:58;;;;;;;4.75;2.97;;;5.20;99.90;;;;;;5003832;28;20554;-47
2022/01/15 06:27:24;;;;;;;5.10;2.50;;;5.10;99.90;;;;;;5005583;28;20416;-47
2022/01/15 06:29:50;;;;;;;7.18;2.50;;;5.20;99.90;;;;;;5003676;28;20445;-46
2022/01/15 06:32:16;;;;;;;3.83;2.28;;;5.10;99.90;;;;;;5005941;28;20456;-47
2022/01/15 06:34:41;;;;;;;4.75;2.55;;;5.20;99.90;;;;;;5011484;28;20045;-47
2022/01/15 06:37:07;;;;;;;5.13;2.78;;;5.20;99.90;;;;;;5009428;28;20635;-47
2022/01/15 06:39:34;;;;;;;4.85;2.30;;;5.20;99.90;;;;;;5004448;28;20095;-48
2022/01/15 06:42:01;;;;;;;5.78;2.63;;;5.10;99.90;;;;;;5004089;28;20061;-49
2022/01/15 06:44:27;;;;;;;4.50;2.63;;;5.20;99.90;;;;;;5005114;28;20124;-47
2022/01/15 06:46:54;;;;;;;7.40;2.55;;;5.10;99.90;;;;;;5004863;28;20145;-47
2022/01/15 06:49:21;;;;;;;5.28;2.80;;;5.10;99.90;;;;;;5003702;28;20056;-49
2022/01/15 06:51:47;;;;;;;4.22;2.72;;;5.10;99.90;;;;;;5007630;28;20045;-46
2022/01/15 06:54:13;;;;;;;3.88;2.50;;;5.10;99.90;;;;;;5004768;28;20485;-47
2022/01/15 06:56:39;;;;;;;4.75;2.83;;;5.10;99.90;;;;;;5006690;28;20057;-48
2022/01/15 06:59:05;;;;;;;8.15;3.03;;;5.20;99.90;;;;;;5006333;28;20053;-48
2022/01/15 07:01:30;;;;;;;6.93;3.08;;;5.20;99.90;;;;;;5004419;28;20058;-48
2022/01/15 07:03:56;;;;;;;4.75;3.10;;;5.10;99.90;;;;;;4992776;28;20077;-49
2022/01/15 07:06:22;;;;;;;6.25;3.00;;;5.10;99.90;;;;;;5003397;28;20053;-47
2022/01/15 07:08:48;;;;;;;5.75;3.58;;;5.10;99.90;;;;;;5001146;28;20061;-48
2022/01/15 07:11:13;;;;;;;5.65;3.03;;;5.10;99.90;;;;;;5004868;28;20058;-51
2022/01/15 07:13:39;;;;;;;5.72;2.95;;;5.10;99.90;;;;;;5003660;28;20133;-48
2022/01/15 07:16:05;;;;;;;5.78;3.42;;;5.10;99.90;;;;;;4999365;28;20042;-50
2022/01/15 07:18:32;;;;;;;6.20;3.20;;;5.00;99.90;;;;;;5003223;28;20515;-48
2022/01/15 07:20:57;;;;;;;6.05;3.00;;;5.10;99.90;;;;;;5004685;28;20514;-47
2022/01/15 07:23:23;;;;;;;5.57;3.13;;;5.00;99.90;;;;;;5003924;28;20050;-47
2022/01/15 07:25:49;;;;;;;6.25;3.78;;;5.00;99.90;;;;;;5004035;28;20046;-47
2022/01/15 07:28:17;;;;;;;5.80;3.53;;;5.00;99.90;;;;;;5002528;28;20052;-48
2022/01/15 07:30:43;;;;;;;4.88;3.42;;;5.00;99.90;;;;;;5003873;28;20045;-47
2022/01/15 07:33:12;;;;;;;7.10;3.50;;;5.00;99.90;;;;;;5004317;28;20054;-48
2022/01/15 07:35:38;;;;;;;6.57;3.80;;;5.00;99.90;;;;;;5004024;28;20050;-47
2022/01/15 07:38:04;;;;;;;5.95;3.10;;;5.00;99.90;;;;;;5003835;28;20053;-47
2022/01/15 07:40:30;;;;;;;12.63;4.15;;;5.00;99.90;;;;;;5004641;28;20405;-48
2022/01/15 07:42:55;;;;;;;6.97;3.60;;;4.90;99.90;;;;;;5003545;28;20528;-48
2022/01/15 07:45:21;;;;;;;6.97;3.90;;;4.90;99.90;;;;;;5004009;28;20042;-48
2022/01/15 07:47:47;;;;;;;8.52;3.65;;;4.90;99.90;;;;;;5001773;28;20053;-47
2022/01/15 07:50:17;;;;;;;6.63;3.45;;;4.90;99.90;;;;;;5001831;28;20085;-48
2022/01/15 07:52:43;;;;;;;5.90;3.80;;;4.90;99.90;;;;;;5002762;28;20052;-47
2022/01/15 07:55:09;;;;;;;5.60;3.30;;;4.90;99.90;;;;;;4991583;28;20560;-47
2022/01/15 07:57:35;;;;;;;6.28;3.67;;;4.90;99.90;;;;;;5004561;28;20050;-48
2022/01/15 08:00:01;;;;;;;5.93;3.75;;;4.90;99.90;;;;;;5001448;28;20112;-51
2022/01/15 08:02:27;;;;;;;7.22;3.65;;;4.90;99.90;;;;;;5004836;28;20073;-50
2022/01/15 08:04:53;;;;;;;6.13;3.80;;;4.90;99.90;;;;;;5001947;28;20464;-50
2022/01/15 08:07:18;;;;;;;7.03;3.90;;;4.70;99.90;;;;;;5004189;28;20460;-48
2022/01/15 08:09:44;;;;;;;6.43;4.20;;;4.70;99.90;;;;;;5002352;28;20061;-47
2022/01/15 08:12:14;;;;;;;8.70;4.60;;;4.70;99.90;;;;;;4993442;28;20184;-55
2022/01/15 08:14:40;;;;;;;8.52;4.25;;;4.70;99.90;;;;;;5003349;28;20101;-48
2022/01/15 08:17:05;;;;;;;8.88;4.72;;;4.70;99.90;;;;;;5003573;28;20492;-48
2022/01/15 08:19:31;;;;;;;9.10;4.97;;;4.70;99.90;;;;;;4988532;28;20054;-47
2022/01/15 08:21:58;;;;;;;8.93;5.45;;;4.80;99.90;;;;;;5003693;28;20050;-48
2022/01/15 08:24:23;;;;;;;9.93;5.68;;;4.70;99.90;;;;;;5003589;28;20057;-47
2022/01/15 08:26:51;;;;;;;11.40;5.47;;;4.90;99.90;;;;;;5003908;28;20053;-45
2022/01/15 08:29:18;;;;;;;9.85;5.25;;;4.90;99.90;;;;;;5002062;28;20045;-45
2022/01/15 08:31:44;;;;;;;10.77;6.30;;;4.80;99.90;;;;;;5003441;28;20057;-46
2022/01/15 08:34:10;;;;;;;9.90;5.28;;;4.80;99.90;;;;;;5002949;28;20054;-46
2022/01/15 08:36:36;;;;;;;8.98;4.70;;;4.90;99.90;;;;;;5003040;28;20041;-47
2022/01/15 08:39:04;;;;;;;8.60;4.35;;;4.80;99.90;;;;;;5001247;28;20140;-46
2022/01/15 08:41:30;;;;;;;7.80;4.80;;;4.80;99.90;;;;;;5003858;28;20528;-48
2022/01/15 08:43:56;;;;;;;11.88;4.95;;;4.90;99.90;;;;;;5003155;28;20236;-45
2022/01/15 08:46:22;;;;;;;10.32;5.88;;;4.90;99.90;;;;;;5003010;28;20183;-46
2022/01/15 08:48:49;;;;;;;9.15;5.07;;;4.90;99.90;;;;;;5001815;28;20046;-46
2022/01/15 08:51:15;;;;;;;9.27;5.82;;;4.90;99.90;;;;;;5002935;28;20077;-46
2022/01/15 08:53:40;;;;;;;12.98;6.28;;;4.90;99.90;;;;;;5003051;28;20061;-47
2022/01/15 08:56:06;;;;;;;12.93;6.22;;;4.90;99.90;;;;;;5002176;28;20049;-45
2022/01/15 08:58:32;;;;;;;13.88;6.45;;;4.90;99.90;;;;;;5003099;28;20143;-46
2022/01/15 09:00:58;;;;;;;11.05;5.88;;;4.90;99.90;;;;;;5011183;28;20058;-47
2022/01/15 09:03:24;;;;;;;11.20;6.55;;;4.90;99.90;;;;;;5006778;28;20066;-45
2022/01/15 09:05:51;;;;;;;12.18;6.35;;;4.90;99.90;;;;;;4995784;28;20053;-47
2022/01/15 09:08:24;;;;;;;11.05;5.50;;;4.90;99.90;;;;;;4989210;28;20483;-46
2022/01/15 09:10:55;;;;;;;9.02;5.38;;;5.00;99.90;;;;;;5002339;28;20935;-46
2022/01/15 09:13:21;;;;;;;9.20;5.30;;;5.00;99.90;;;;;;5002014;28;20058;-48
2022/01/15 09:15:49;;;;;;;10.48;5.70;;;4.90;99.90;;;;;;5003237;28;20061;-46
2022/01/15 09:18:15;;;;;;;12.65;5.07;;;5.00;99.90;;;;;;5002433;28;20053;-47
2022/01/15 09:20:41;;;;;;;14.05;5.88;;;5.00;99.90;;;;;;5005645;28;20058;-47
2022/01/15 09:23:08;;;;;;;11.93;5.85;;;5.00;99.90;;;;;;5003214;28;20054;-45
2022/01/15 09:25:34;;;;;;;14.45;6.13;;;5.00;99.90;;;;;;5003255;28;20045;-45
2022/01/15 09:30:44;;;;;;;9.98;5.53;;;5.00;99.90;;;;;;5000452;28;20463;-45
2022/01/15 09:33:10;;;;;;;13.30;5.55;;;4.90;99.90;;;;;;4999469;28;20054;-45
2022/01/15 09:35:39;;;;;;;13.18;6.72;;;5.00;99.90;;;;;;5003418;28;20054;-47
2022/01/15 09:38:05;;;;;;;12.60;6.35;;;4.90;99.90;;;;;;5002687;28;20054;-46
2022/01/15 09:40:31;;;;;;;14.23;7.32;;;4.80;99.90;;;;;;5002390;28;20041;-46
2022/01/15 09:42:58;;;;;;;15.75;7.72;;;4.90;99.90;;;;;;4999175;28;20061;-46
2022/01/15 09:45:24;;;;;;;15.35;7.45;;;4.80;99.90;;;;;;5000301;28;20060;-46
2022/01/15 09:48:01;;;;;;;12.90;7.22;;;4.80;99.90;;;;;;5001546;28;20156;-47
2022/01/15 09:50:31;;;;;;;16.55;7.93;;;4.80;99.90;;;;;;4999858;28;20393;-45
2022/01/15 09:52:57;;;;;;;17.20;7.70;;;4.80;99.90;;;;;;5002326;28;20400;-47
2022/01/15 09:55:24;;;;;;;18.90;8.48;;;4.80;99.90;;;;;;5002216;28;20042;-45
2022/01/15 09:57:51;;;;;;;19.83;9.63;;;4.90;99.90;;;;;;5001863;28;20443;-45
2022/01/15 10:00:18;;;;;;;24.27;11.73;;;5.00;99.90;;;;;;4990504;28;20061;-45
2022/01/15 10:02:46;;;;;;;28.90;11.75;;;4.90;99.90;;;;;;4992073;28;20111;-45
2022/01/15 10:05:14;;;;;;;23.52;11.65;;;4.90;99.90;;;;;;5000529;28;20061;-45
2022/01/15 10:07:57;;;;;;;24.70;11.93;;;5.00;99.90;;;;;;5001585;28;20054;-46
2022/01/15 10:10:23;;;;;;;22.80;12.63;;;5.00;99.90;;;;;;5001143;28;20049;-45
2022/01/15 10:12:49;;;;;;;25.33;12.75;;;4.90;99.90;;;;;;5001248;28;20049;-45
2022/01/15 10:15:16;;;;;;;31.98;13.27;;;5.00;99.90;;;;;;5000832;28;20049;-46
2022/01/15 10:17:43;;;;;;;28.90;13.32;;;4.90;99.90;;;;;;5002684;28;20038;-45
2022/01/15 10:20:18;;;;;;;35.63;14.77;;;4.80;99.90;;;;;;5002811;28;20054;-45
2022/01/15 10:22:49;;;;;;;32.10;15.18;;;4.90;99.90;;;;;;5001732;28;20501;-49
2022/01/15 10:25:21;;;;;;;43.25;16.42;;;4.90;99.90;;;;;;5000821;28;20108;-46
2022/01/15 10:27:55;;;;;;;30.88;15.55;;;4.90;99.90;;;;;;4989463;28;20058;-46
2022/01/15 10:30:26;;;;;;;39.05;17.60;;;4.90;99.90;;;;;;5001845;28;20733;-45
2022/01/15 10:32:55;;;;;;;35.47;15.85;;;4.90;99.90;;;;;;5024114;28;20120;-48
2022/01/15 10:35:24;;;;;;;35.05;16.90;;;4.90;99.90;;;;;;5003867;28;20111;-46
2022/01/15 10:38:02;;;;;;;44.75;18.92;;;4.80;99.90;;;;;;5020424;28;20049;-45
2022/01/15 10:40:50;;;;;;;39.65;18.58;;;4.90;99.90;;;;;;5020226;28;20103;-45
2022/01/15 10:43:19;;;;;;;40.92;18.15;;;4.80;99.90;;;;;;5016137;28;20473;-45
2022/01/15 10:45:50;;;;;;;46.55;17.85;;;4.80;99.90;;;;;;5016653;28;20065;-45
2022/01/15 10:48:25;;;;;;;40.40;18.08;;;4.80;99.90;;;;;;5011985;28;20049;-46
2022/01/15 10:51:08;;;;;;;38.85;17.42;;;4.80;99.90;;;;;;5006701;28;20281;-46
2022/01/15 10:53:47;;;;;;;49.97;19.75;;;4.80;99.90;;;;;;5019772;28;20508;-45
2022/01/15 10:56:15;;;;;;;44.97;19.05;;;4.80;99.90;;;;;;5011322;28;20420;-48
2022/01/15 10:58:44;;;;;;;43.03;17.48;;;4.80;99.90;;;;;;5017424;28;20057;-45
2022/01/15 11:01:24;;;;;;;42.25;18.45;;;4.90;99.90;;;;;;5022119;28;20605;-45
2022/01/15 11:03:50;;;;;;;40.03;17.90;;;4.80;99.90;;;;;;5025311;28;20049;-46
2022/01/15 11:06:37;;;;;;;41.75;18.45;;;4.90;99.90;;;;;;5006375;28;20522;-45
2022/01/15 11:09:03;;;;;;;47.75;19.25;;;4.90;99.90;;;;;;5012412;28;20081;-44
2022/01/15 11:11:32;;;;;;;42.80;18.77;;;4.80;99.90;;;;;;5004792;28;20566;-45
2022/01/15 11:13:58;;;;;;;44.95;18.95;;;4.80;99.90;;;;;;5025119;28;20053;-47
2022/01/15 11:16:24;;;;;;;35.08;16.95;;;4.80;99.90;;;;;;5023896;28;20058;-46
2022/01/15 11:18:54;;;;;;;41.03;18.05;;;4.70;99.90;;;;;;5023722;28;20507;-45
2022/01/15 11:21:25;;;;;;;27.83;14.65;;;4.60;99.90;;;;;;5023781;28;20061;-47
2022/01/15 11:23:51;;;;;;;31.98;15.63;;;4.60;99.90;;;;;;5023294;28;20176;-46
2022/01/15 11:26:27;;;;;;;27.23;13.52;;;4.60;99.90;;;;;;5023172;28;20492;-47
2022/01/15 11:28:55;;;;;;;25.80;13.60;;;4.50;99.90;;;;;;5004744;28;20065;-47
2022/01/15 11:31:26;;;;;;;26.35;12.85;;;4.70;99.90;;;;;;5023133;28;20060;-45
2022/01/15 11:33:55;;;;;;;20.45;11.77;;;4.60;99.90;;;;;;4996104;28;20129;-46
2022/01/15 11:36:37;;;;;;;26.27;13.40;;;4.70;99.90;;;;;;5002711;28;20053;-50
2022/01/15 11:39:06;;;;;;;26.02;14.07;;;4.70;99.90;;;;;;5017080;28;20472;-48
2022/01/15 11:41:31;;;;;;;24.35;13.13;;;4.70;99.90;;;;;;5001160;28;20049;-47
2022/01/15 11:44:16;;;;;;;23.15;13.02;;;4.70;99.90;;;;;;5020513;28;20400;-48
2022/01/15 11:46:53;;;;;;;21.30;12.60;;;4.70;99.90;;;;;;5016885;28;20103;-52
2022/01/15 11:49:29;;;;;;;20.92;13.20;;;4.70;99.90;;;;;;5000655;28;20107;-47
2022/01/15 11:52:18;;;;;;;23.45;13.77;;;4.70;99.90;;;;;;5022119;28;20053;-47
2022/01/15 11:54:59;;;;;;;21.95;12.88;;;4.70;99.90;;;;;;5023759;28;20140;-49
2022/01/15 11:57:29;;;;;;;19.70;12.63;;;4.80;99.90;;;;;;5023719;28;20131;-47
2022/01/15 12:00:00;;;;;;;23.25;14.43;;;4.80;99.90;;;;;;5011076;28;20042;-46
2022/01/15 12:02:29;;;;;;;23.77;13.65;;;4.70;99.90;;;;;;5022754;28;20053;-47
2022/01/15 12:05:18;;;;;;;23.67;14.52;;;4.70;99.90;;;;;;5024399;28;20057;-47
2022/01/15 12:08:10;;;;;;;25.73;14.90;;;4.70;99.90;;;;;;5022604;28;20160;-46
2022/01/15 12:10:47;;;;;;;23.48;14.48;;;4.70;99.90;;;;;;5022090;28;20503;-47
2022/01/15 12:13:18;;;;;;;22.42;13.50;;;4.70;99.90;;;;;;5002647;28;20441;-46
2022/01/15 12:15:44;;;;;;;33.60;16.50;;;4.80;99.90;;;;;;5022469;28;20050;-47
2022/01/15 12:18:15;;;;;;;30.55;17.00;;;4.80;99.90;;;;;;4996010;28;20046;-46
2022/01/15 12:20:41;;;;;;;30.17;15.93;;;4.80;99.90;;;;;;4997079;28;20057;-47
2022/01/15 12:23:19;;;;;;;34.38;17.80;;;4.80;99.90;;;;;;5005033;28;20049;-46
2022/01/15 12:25:51;;;;;;;31.30;17.73;;;4.90;99.90;;;;;;5007426;28;20057;-47
2022/01/15 12:28:21;;;;;;;34.65;18.27;;;4.90;99.90;;;;;;5013996;28;20117;-48
2022/01/15 12:30:52;;;;;;;33.28;18.80;;;4.90;99.90;;;;;;5015673;28;20415;-46
2022/01/15 12:33:24;;;;;;;35.53;19.67;;;4.90;99.90;;;;;;5026910;28;20062;-46
2022/01/15 12:35:52;;;;;;;35.97;19.67;;;4.90;99.90;;;;;;5027483;28;20483;-47
2022/01/15 12:38:27;;;;;;;34.65;18.00;;;4.90;99.90;;;;;;5006856;28;20060;-47
2022/01/15 12:41:10;;;;;;;32.17;17.77;;;4.90;99.90;;;;;;5022843;28;20103;-50
2022/01/15 12:43:41;;;;;;;32.50;19.17;;;5.00;99.90;;;;;;4989152;28;20402;-47
2022/01/15 12:46:17;;;;;;;34.67;20.05;;;5.00;99.90;;;;;;5023687;28;20124;-47
2022/01/15 12:48:44;;;;;;;30.92;19.27;;;4.90;99.90;;;;;;5021863;28;20099;-48
2022/01/15 12:51:14;;;;;;;36.83;19.90;;;4.90;99.90;;;;;;5022700;28;20578;-47
2022/01/15 12:53:49;;;;;;;39.00;19.92;;;4.70;99.90;;;;;;5023507;28;20041;-47
2022/01/15 12:56:20;;;;;;;33.70;18.88;;;4.80;99.90;;;;;;5024985;28;20060;-49
2022/01/15 12:58:51;;;;;;;35.72;19.70;;;4.80;99.90;;;;;;5004452;28;20057;-47
2022/01/15 13:01:22;;;;;;;34.00;18.83;;;4.80;99.90;;;;;;5022455;28;20500;-48
2022/01/15 13:03:49;;;;;;;36.53;20.77;;;4.80;99.90;;;;;;5003697;28;20496;-46
2022/01/15 13:06:14;;;;;;;36.17;19.85;;;4.80;99.90;;;;;;5022420;28;20167;-47
2022/01/15 13:08:43;;;;;;;36.45;20.63;;;4.80;99.90;;;;;;5022648;28;20658;-47
2022/01/15 13:13:44;;;;;;;37.45;19.95;;;4.80;99.90;;;;;;5021184;28;20060;-48
2022/01/15 13:16:15;;;;;;;34.65;19.73;;;4.80;99.90;;;;;;5021887;28;20223;-47
2022/01/15 13:18:58;;;;;;;37.72;19.85;;;4.80;99.90;;;;;;5022433;28;20068;-47